Seraphima — D5IN5 — position and weather

sailwx.info

Track history (hours):
 
Tides and Currents Weather Stations Pressure Air Temp Water Temp Dewpoint Dewpoint Depression Visibility Wind Speed Wind Dir Waves Ship Positions

Seraphima

Last reported at 2017-Nov-17 14:38 UTC. Time now 2017-Nov-17 17:49 UTC.
Position N 45°15' E 036°28'.

Length 123 m; draft 4.3 m.

Type: Cargo ship. MMSI: 636016941.

Date/timePositionNaut miles runAvg speedWind from/ knotsBaromVisibWave heightAir tempDewpointWater temp
2017-Nov-17 14:38N 45°15' E 036°28'1 6.7
2017-Nov-17 14:30N 45°16' E 036°28'3 6.4
2017-Nov-17 14:00N 45°18' E 036°30'4 7.4
2017-Nov-17 13:30N 45°20' E 036°35'4 7.3
2017-Nov-17 13:00N 45°22' E 036°40'4 7.1
2017-Nov-17 12:30N 45°25' E 036°41'3 6.7
2017-Nov-17 12:00N 45°28' E 036°39'2 0.7
2017-Nov-17 08:50N 45°30' E 036°37'0 0.0
2017-Nov-17 08:11N 45°30' E 036°37'0 0.0
2017-Nov-17 07:59N 45°30' E 036°37'0 0.0
2017-Nov-17 07:23N 45°30' E 036°37'0 0.0
2017-Nov-17 05:44N 45°30' E 036°37'0 0.1
2017-Nov-17 05:29N 45°30' E 036°37'0 0.0
2017-Nov-17 02:14N 45°30' E 036°37'0 0.0
2017-Nov-17 01:44N 45°30' E 036°37'0 0.0
2017-Nov-16 22:05N 45°30' E 036°37'0 0.5
2017-Nov-16 22:00N 45°30' E 036°37'2 4.3
2017-Nov-16 21:30N 45°31' E 036°39'  
2017-Nov-08 16:38N 45°39' E 036°46'1 8.1
2017-Nov-08 16:30N 45°38' E 036°45'6 8.1
2017-Nov-08 15:46N 45°32' E 036°44'2 8.2
2017-Nov-08 15:30N 45°30' E 036°43'4 8.0
2017-Nov-08 15:00N 45°26' E 036°42'4 7.6
2017-Nov-08 14:30N 45°22' E 036°40'3 5.7
2017-Nov-08 14:00N 45°20' E 036°38'3 5.8
2017-Nov-08 13:30N 45°19' E 036°34'3 5.5
2017-Nov-08 13:00N 45°18' E 036°30'2 4.7
2017-Nov-08 12:30N 45°16' E 036°29'2 4.4
2017-Nov-08 12:00N 45°14' E 036°30'0 0.7
2017-Nov-08 11:29N 45°14' E 036°30'0 0.0
2017-Nov-08 10:59N 45°14' E 036°30'0 0.0
2017-Nov-08 10:29N 45°14' E 036°30'0 0.0
2017-Nov-08 09:59N 45°14' E 036°30'0 0.0
2017-Nov-08 09:29N 45°14' E 036°30'0 0.0
2017-Nov-08 08:59N 45°14' E 036°30'0 0.0
2017-Nov-08 08:26N 45°14' E 036°30'0 0.0
2017-Nov-08 07:59N 45°14' E 036°30'0 0.0
2017-Nov-08 07:30N 45°14' E 036°30'2 4.7
2017-Nov-08 07:00N 45°12' E 036°29'4 7.1
2017-Nov-08 06:30N 45°08' E 036°30'4 6.9
2017-Nov-08 05:59N 45°05' E 036°31'  
Track history (hours):
 
Tides and Currents Weather Stations Pressure Air Temp Water Temp Dewpoint Dewpoint Depression Visibility Wind Speed Wind Dir Waves Ship Positions

Seraphima

Last reported at 2017-Nov-17 14:38 UTC. Time now 2017-Nov-17 17:49 UTC.
Position N 45°15' E 036°28'.

Length 123 m; draft 4.3 m.

Type: Cargo ship. MMSI: 636016941.

Date/timePositionNaut miles runAvg speedWind from/ knotsBaromVisibWave heightAir tempDewpointWater temp
2017-Nov-17 14:38N 45°15' E 036°28'1 6.7
2017-Nov-17 14:30N 45°16' E 036°28'3 6.4
2017-Nov-17 14:00N 45°18' E 036°30'4 7.4
2017-Nov-17 13:30N 45°20' E 036°35'4 7.3
2017-Nov-17 13:00N 45°22' E 036°40'4 7.1
2017-Nov-17 12:30N 45°25' E 036°41'3 6.7
2017-Nov-17 12:00N 45°28' E 036°39'2 0.7
2017-Nov-17 08:50N 45°30' E 036°37'0 0.0
2017-Nov-17 08:11N 45°30' E 036°37'0 0.0
2017-Nov-17 07:59N 45°30' E 036°37'0 0.0
2017-Nov-17 07:23N 45°30' E 036°37'0 0.0
2017-Nov-17 05:44N 45°30' E 036°37'0 0.1
2017-Nov-17 05:29N 45°30' E 036°37'0 0.0
2017-Nov-17 02:14N 45°30' E 036°37'0 0.0
2017-Nov-17 01:44N 45°30' E 036°37'0 0.0
2017-Nov-16 22:05N 45°30' E 036°37'0 0.5
2017-Nov-16 22:00N 45°30' E 036°37'2 4.3
2017-Nov-16 21:30N 45°31' E 036°39'  
2017-Nov-08 16:38N 45°39' E 036°46'1 8.1
2017-Nov-08 16:30N 45°38' E 036°45'6 8.1
2017-Nov-08 15:46N 45°32' E 036°44'2 8.2
2017-Nov-08 15:30N 45°30' E 036°43'4 8.0
2017-Nov-08 15:00N 45°26' E 036°42'4 7.6
2017-Nov-08 14:30N 45°22' E 036°40'3 5.7
2017-Nov-08 14:00N 45°20' E 036°38'3 5.8
2017-Nov-08 13:30N 45°19' E 036°34'3 5.5
2017-Nov-08 13:00N 45°18' E 036°30'2 4.7
2017-Nov-08 12:30N 45°16' E 036°29'2 4.4
2017-Nov-08 12:00N 45°14' E 036°30'0 0.7
2017-Nov-08 11:29N 45°14' E 036°30'0 0.0
2017-Nov-08 10:59N 45°14' E 036°30'0 0.0
2017-Nov-08 10:29N 45°14' E 036°30'0 0.0
2017-Nov-08 09:59N 45°14' E 036°30'0 0.0
2017-Nov-08 09:29N 45°14' E 036°30'0 0.0
2017-Nov-08 08:59N 45°14' E 036°30'0 0.0
2017-Nov-08 08:26N 45°14' E 036°30'0 0.0
2017-Nov-08 07:59N 45°14' E 036°30'0 0.0
2017-Nov-08 07:30N 45°14' E 036°30'2 4.7
2017-Nov-08 07:00N 45°12' E 036°29'4 7.1
2017-Nov-08 06:30N 45°08' E 036°30'4 6.9
2017-Nov-08 05:59N 45°05' E 036°31'  

Dump ship's entire track history